Time;durP1;ratioP1;P1;durP2;ratioP2;P2;SDS_P1;SDS_P2;PMS_P1;PMS_P2;Temp;Humidity;BMP_temperature;BMP_pressure;BME280_temperature;BME280_humidity;BME280_pressure;Samples;Min_cycle;Max_cycle;Signal;HPM_P1;HPM_P2
2022/11/09 00:01:24;;;;;;;5.97;1.35;;;17.70;54.40;;;;;;5026088;28;20060;-45
2022/11/09 00:03:58;;;;;;;1.65;1.10;;;17.70;54.40;;;;;;5042043;28;20053;-49
2022/11/09 00:06:26;;;;;;;2.47;1.17;;;17.70;54.40;;;;;;5021924;28;20065;-45
2022/11/09 00:08:55;;;;;;;5.60;1.27;;;17.70;54.40;;;;;;5042894;28;20052;-46
2022/11/09 00:11:22;;;;;;;1.35;0.98;;;17.70;54.50;;;;;;5032423;28;20057;-48
2022/11/09 00:13:51;;;;;;;5.40;1.60;;;17.70;54.50;;;;;;5044324;28;20049;-39
2022/11/09 00:16:21;;;;;;;5.35;1.30;;;17.70;54.50;;;;;;5024256;28;20061;-45
2022/11/09 00:18:50;;;;;;;2.08;1.20;;;17.70;54.90;;;;;;5033771;28;20056;-43
2022/11/09 00:21:21;;;;;;;4.97;1.23;;;17.70;54.50;;;;;;5026325;28;20083;-43
2022/11/09 00:23:50;;;;;;;4.95;1.33;;;17.70;54.50;;;;;;5032004;28;20382;-43
2022/11/09 00:26:22;;;;;;;4.80;1.17;;;17.70;54.40;;;;;;5033201;28;20053;-46
2022/11/09 00:28:50;;;;;;;2.67;1.20;;;17.70;54.40;;;;;;5036381;28;20053;-50
2022/11/09 00:31:21;;;;;;;3.45;1.23;;;17.70;54.40;;;;;;5030974;28;20049;-46
2022/11/09 00:33:56;;;;;;;2.80;1.48;;;17.70;54.40;;;;;;5042265;28;20055;-46
2022/11/09 00:36:29;;;;;;;2.35;1.17;;;17.70;54.40;;;;;;5035593;28;20503;-48
2022/11/09 00:39:02;;;;;;;2.97;1.10;;;17.70;54.40;;;;;;5044158;28;20049;-50
2022/11/09 00:41:30;;;;;;;2.03;1.23;;;17.70;54.40;;;;;;5038066;28;20060;-45
2022/11/09 00:44:07;;;;;;;1.80;1.20;;;17.70;54.80;;;;;;5041336;28;20428;-45
2022/11/09 00:49:28;;;;;;;2.35;1.13;;;17.70;54.40;;;;;;5026508;28;20053;-43
2022/11/09 00:52:01;;;;;;;4.47;1.13;;;17.70;54.30;;;;;;5035570;28;20400;-43
2022/11/09 00:54:29;;;;;;;2.05;1.10;;;17.70;54.40;;;;;;5032235;28;20120;-47
2022/11/09 00:59:47;;;;;;;3.25;1.38;;;17.70;55.00;;;;;;5020617;28;20071;-44
2022/11/09 01:02:16;;;;;;;2.20;1.25;;;17.70;54.50;;;;;;5027149;28;20891;-43
2022/11/09 01:04:48;;;;;;;2.78;1.08;;;17.70;54.60;;;;;;5038094;28;20045;-48
2022/11/09 01:07:26;;;;;;;1.88;1.30;;;17.70;54.70;;;;;;5027494;28;20056;-47
2022/11/09 01:09:53;;;;;;;1.85;0.90;;;17.60;54.70;;;;;;5027474;28;20413;-41
2022/11/09 01:12:22;;;;;;;2.35;1.30;;;17.70;54.80;;;;;;5028957;28;20417;-43
2022/11/09 01:14:53;;;;;;;1.90;1.08;;;17.60;54.80;;;;;;5028302;28;20057;-47
2022/11/09 01:17:21;;;;;;;2.05;1.10;;;17.60;54.90;;;;;;5032564;28;20057;-48
2022/11/09 01:19:49;;;;;;;2.80;1.25;;;17.60;54.90;;;;;;5038950;28;20046;-45
2022/11/09 01:22:23;;;;;;;1.88;0.98;;;17.60;54.90;;;;;;5023293;28;20079;-43
2022/11/09 01:24:56;;;;;;;3.03;1.00;;;17.60;55.40;;;;;;5040562;28;20060;-41
2022/11/09 01:27:28;;;;;;;5.07;1.30;;;17.60;55.00;;;;;;5045010;28;20060;-45
2022/11/09 01:29:56;;;;;;;2.72;1.10;;;17.60;55.00;;;;;;5042180;28;20056;-47
2022/11/09 01:32:23;;;;;;;2.10;0.85;;;17.60;54.90;;;;;;5022156;28;20072;-46
2022/11/09 01:34:57;;;;;;;2.45;1.23;;;17.70;55.00;;;;;;5038137;28;20416;-49
2022/11/09 01:40:12;;;;;;;1.67;1.27;;;17.60;55.00;;;;;;5027304;28;20504;-47
2022/11/09 01:42:45;;;;;;;1.77;0.98;;;17.70;55.00;;;;;;5044522;28;20059;-50
2022/11/09 01:45:27;;;;;;;2.83;1.00;;;17.70;55.00;;;;;;5037726;28;20052;-50
2022/11/09 01:48:01;;;;;;;1.77;1.10;;;17.70;55.00;;;;;;5029950;28;20056;-49
2022/11/09 01:50:37;;;;;;;2.75;0.93;;;17.70;55.00;;;;;;5036627;28;20046;-45
2022/11/09 01:53:13;;;;;;;2.60;1.10;;;17.70;55.10;;;;;;5029711;28;20409;-43
2022/11/09 01:55:50;;;;;;;2.13;1.10;;;17.70;55.10;;;;;;5036472;28;20053;-46
2022/11/09 01:58:23;;;;;;;3.22;1.10;;;17.70;55.00;;;;;;5027236;28;20053;-47
2022/11/09 02:00:52;;;;;;;2.22;1.00;;;17.70;55.10;;;;;;5026661;28;20060;-57
2022/11/09 02:06:11;;;;;;;3.05;1.10;;;17.70;55.00;;;;;;5040433;28;20041;-57
2022/11/09 02:08:42;;;;;;;2.80;1.00;;;17.70;55.10;;;;;;5026224;28;20049;-56
2022/11/09 02:11:13;;;;;;;1.30;0.80;;;17.70;55.10;;;;;;5018777;28;20049;-57
2022/11/09 02:13:43;;;;;;;2.03;0.90;;;17.70;55.00;;;;;;5041652;28;20059;-57
2022/11/09 02:16:18;;;;;;;2.10;1.13;;;17.70;55.00;;;;;;5020367;28;20076;-57
2022/11/09 02:18:51;;;;;;;1.85;0.95;;;17.70;55.00;;;;;;5041861;28;20053;-51
2022/11/09 02:21:22;;;;;;;1.37;0.80;;;17.70;55.10;;;;;;5029089;28;20060;-54
2022/11/09 02:23:53;;;;;;;4.00;1.52;;;17.60;55.10;;;;;;5030729;28;20049;-57
2022/11/09 02:26:30;;;;;;;3.75;1.00;;;17.70;55.10;;;;;;5029563;28;20405;-57
2022/11/09 02:29:04;;;;;;;2.67;1.17;;;17.60;55.10;;;;;;5025261;28;20517;-58
2022/11/09 02:31:36;;;;;;;;;;;17.60;55.10;;;;;;5023083;28;20076;-57
2022/11/09 02:34:13;;;;;;;2.35;0.90;;;17.70;55.20;;;;;;5016651;28;19925;-57
2022/11/09 02:36:43;;;;;;;2.30;0.98;;;17.70;55.00;;;;;;5021312;28;20489;-53
2022/11/09 02:39:18;;;;;;;2.20;0.85;;;17.60;55.10;;;;;;5019026;28;20532;-57
2022/11/09 02:41:50;;;;;;;1.20;0.70;;;17.60;55.10;;;;;;5029176;28;20467;-58
2022/11/09 02:44:20;;;;;;;3.33;0.90;;;17.60;55.20;;;;;;5041422;28;20053;-57
2022/11/09 02:46:58;;;;;;;1.77;0.90;;;17.60;55.30;;;;;;5028260;28;20042;-57
2022/11/09 02:49:26;;;;;;;1.95;1.10;;;17.60;55.30;;;;;;5035286;28;20472;-57
2022/11/09 02:52:00;;;;;;;2.00;0.95;;;17.60;55.30;;;;;;5032500;28;20049;-58
2022/11/09 02:54:42;;;;;;;1.75;0.98;;;17.50;55.40;;;;;;5026852;28;20347;-54
2022/11/09 02:57:12;;;;;;;6.35;1.27;;;17.50;55.40;;;;;;5028066;28;20048;-57
2022/11/09 03:09:33;;;;;;;2.33;0.88;;;17.40;55.40;;;;;;5119036;28;20031;-57
2022/11/09 03:12:27;;;;;;;3.03;1.02;;;17.40;55.40;;;;;;5120459;27;20049;-56
2022/11/09 03:14:48;;;;;;;2.38;0.82;;;17.40;55.40;;;;;;5118412;28;20522;-49
2022/11/09 03:17:16;;;;;;;0.95;0.68;;;17.40;55.50;;;;;;5118637;27;20058;-50
2022/11/09 03:19:43;;;;;;;3.67;1.13;;;17.40;55.50;;;;;;5116047;28;20066;-57
2022/11/09 03:22:10;;;;;;;2.92;1.23;;;17.40;55.50;;;;;;5116447;27;20048;-57
2022/11/09 03:24:39;;;;;;;3.83;0.95;;;17.40;55.50;;;;;;5120582;27;20055;-58
2022/11/09 03:27:06;;;;;;;3.95;0.75;;;17.40;55.50;;;;;;5120619;27;20395;-58
2022/11/09 03:29:33;;;;;;;2.78;0.93;;;17.40;55.50;;;;;;5120782;27;21106;-57
2022/11/09 03:32:00;;;;;;;3.53;0.73;;;17.30;55.50;;;;;;5117768;27;20051;-58
2022/11/09 03:34:28;;;;;;;2.45;0.65;;;17.30;55.50;;;;;;5120401;27;20062;-57
2022/11/09 03:36:55;;;;;;;2.60;1.05;;;17.30;55.50;;;;;;5119327;27;20066;-58
2022/11/09 03:39:22;;;;;;;2.17;0.50;;;17.30;55.40;;;;;;5080310;27;20056;-57
2022/11/09 03:41:51;;;;;;;2.17;0.68;;;17.30;55.50;;;;;;5052623;28;20060;-57
2022/11/09 03:44:18;;;;;;;2.10;0.90;;;17.30;55.40;;;;;;5064273;28;20409;-57
2022/11/09 03:46:46;;;;;;;3.40;0.80;;;17.30;55.50;;;;;;5067078;28;20512;-57
2022/11/09 03:49:13;;;;;;;0.90;0.68;;;17.30;55.40;;;;;;5076783;28;20067;-52
2022/11/09 03:51:40;;;;;;;3.72;1.00;;;17.30;55.40;;;;;;5065229;28;20096;-48
2022/11/09 03:54:08;;;;;;;4.97;0.98;;;17.30;55.40;;;;;;5054036;28;20064;-49
2022/11/09 03:56:35;;;;;;;1.75;0.70;;;17.20;55.40;;;;;;5067361;28;20049;-46
2022/11/09 03:59:04;;;;;;;2.25;0.80;;;17.30;55.40;;;;;;5068088;28;20048;-49
2022/11/09 04:01:31;;;;;;;2.30;0.70;;;17.30;55.40;;;;;;5057679;28;20049;-48
2022/11/09 04:03:59;;;;;;;2.45;0.95;;;17.30;55.40;;;;;;5070483;28;20480;-48
2022/11/09 04:06:26;;;;;;;2.13;0.65;;;17.30;55.40;;;;;;5057490;28;20060;-47
2022/11/09 04:08:53;;;;;;;1.98;0.60;;;17.20;55.30;;;;;;5071274;28;20049;-46
2022/11/09 04:11:20;;;;;;;1.52;0.80;;;17.20;55.30;;;;;;5057643;28;20044;-48
2022/11/09 04:13:47;;;;;;;2.10;0.70;;;17.20;55.20;;;;;;5055801;28;20071;-46
2022/11/09 04:16:16;;;;;;;3.83;1.20;;;17.20;55.20;;;;;;5045785;28;20587;-45
2022/11/09 04:18:43;;;;;;;5.85;0.90;;;17.20;55.20;;;;;;5049759;28;20566;-44
2022/11/09 04:21:10;;;;;;;1.80;0.80;;;17.20;55.20;;;;;;5038891;28;20056;-47
2022/11/09 04:23:37;;;;;;;4.85;1.13;;;17.20;55.30;;;;;;5048648;28;20063;-44
2022/11/09 04:26:05;;;;;;;3.35;0.77;;;17.20;55.30;;;;;;5051574;28;20064;-49
2022/11/09 04:28:32;;;;;;;3.28;0.82;;;17.20;55.30;;;;;;5037255;28;20053;-52
2022/11/09 04:31:02;;;;;;;1.55;0.60;;;17.20;55.30;;;;;;5046043;28;20048;-47
2022/11/09 04:33:31;;;;;;;34.17;13.50;;;17.20;55.30;;;;;;5056471;28;20052;-46
2022/11/09 04:36:02;;;;;;;15.50;5.88;;;17.20;55.30;;;;;;5046116;28;20081;-43
2022/11/09 04:38:29;;;;;;;5.13;2.67;;;17.20;55.30;;;;;;5035425;28;20055;-49
2022/11/09 04:41:00;;;;;;;2.53;1.35;;;17.20;55.40;;;;;;5036644;28;20068;-47
2022/11/09 04:43:28;;;;;;;3.53;0.80;;;17.20;55.40;;;;;;5057989;28;20064;-47
2022/11/09 04:45:55;;;;;;;2.97;0.95;;;17.20;55.40;;;;;;5045613;28;20067;-46
2022/11/09 04:48:22;;;;;;;2.15;0.70;;;17.30;55.50;;;;;;5055933;28;20416;-46
2022/11/09 04:50:51;;;;;;;1.45;0.50;;;17.20;55.50;;;;;;5049515;28;20044;-45
2022/11/09 04:53:18;;;;;;;1.77;0.70;;;17.20;55.50;;;;;;5047191;28;20048;-51
2022/11/09 04:55:45;;;;;;;2.47;0.73;;;17.20;55.50;;;;;;5050503;28;20489;-50
2022/11/09 04:58:12;;;;;;;1.05;0.57;;;17.30;55.60;;;;;;5051402;28;20480;-50
2022/11/09 05:00:40;;;;;;;3.42;0.80;;;17.30;55.60;;;;;;5048559;28;20049;-47
2022/11/09 05:03:07;;;;;;;1.15;0.50;;;17.20;55.60;;;;;;5054304;28;20045;-51
2022/11/09 05:05:36;;;;;;;1.00;0.60;;;17.20;55.60;;;;;;5048977;28;20060;-46
2022/11/09 05:08:06;;;;;;;11.05;4.45;;;17.30;55.70;;;;;;5045548;28;20053;-47
2022/11/09 05:10:33;;;;;;;15.68;8.02;;;17.30;55.80;;;;;;5040852;28;20064;-44
2022/11/09 05:13:01;;;;;;;3.15;1.80;;;17.20;55.70;;;;;;5045625;28;20416;-46
2022/11/09 05:15:28;;;;;;;1.83;0.90;;;17.30;55.80;;;;;;5052452;28;20057;-48
2022/11/09 05:17:56;;;;;;;1.38;0.60;;;17.20;55.80;;;;;;5036486;28;20489;-52
2022/11/09 05:20:23;;;;;;;2.28;0.68;;;17.20;55.80;;;;;;5050933;28;20063;-48
2022/11/09 05:25:37;;;;;;;3.40;0.55;;;17.20;56.40;;;;;;5063350;28;20048;-46
2022/11/09 05:28:04;;;;;;;1.27;0.55;;;17.20;55.90;;;;;;5050302;28;20519;-44
2022/11/09 05:30:32;;;;;;;2.50;0.50;;;17.30;56.00;;;;;;5047893;28;20515;-47
2022/11/09 05:32:59;;;;;;;8.85;4.05;;;17.20;56.00;;;;;;5040435;28;20057;-48
2022/11/09 05:35:26;;;;;;;6.53;2.33;;;17.20;56.00;;;;;;5038218;28;20061;-46
2022/11/09 05:37:53;;;;;;;1.27;0.80;;;17.20;56.00;;;;;;5044299;28;20052;-46
2022/11/09 05:40:21;;;;;;;3.03;0.77;;;17.20;56.00;;;;;;5047557;28;20056;-46
2022/11/09 05:42:50;;;;;;;2.10;0.65;;;17.20;56.00;;;;;;5039394;28;20570;-47
2022/11/09 05:45:18;;;;;;;1.48;0.60;;;17.20;56.00;;;;;;5050845;28;20622;-47
2022/11/09 05:47:46;;;;;;;2.35;0.63;;;17.20;56.00;;;;;;5056404;28;20053;-48
2022/11/09 05:50:14;;;;;;;2.35;0.70;;;17.20;56.00;;;;;;5033202;28;20049;-47
2022/11/09 05:52:42;;;;;;;0.88;0.57;;;17.20;56.10;;;;;;5040701;28;20048;-43
2022/11/09 05:55:09;;;;;;;3.80;0.93;;;17.20;56.10;;;;;;5044117;28;20903;-46
2022/11/09 05:57:36;;;;;;;27.23;10.82;;;17.20;56.50;;;;;;5046229;28;20056;-47
2022/11/09 06:00:07;;;;;;;11.00;5.50;;;17.20;56.10;;;;;;5040291;28;20052;-52
2022/11/09 06:02:34;;;;;;;4.10;1.65;;;17.20;56.10;;;;;;5034352;28;20063;-47
2022/11/09 06:05:01;;;;;;;2.88;0.95;;;17.20;56.10;;;;;;5058797;28;20052;-46
2022/11/09 06:07:29;;;;;;;1.73;0.65;;;17.20;56.10;;;;;;5053166;28;20056;-45
2022/11/09 06:09:56;;;;;;;1.10;0.40;;;17.20;56.10;;;;;;5055694;28;20143;-46
2022/11/09 06:12:23;;;;;;;2.88;0.70;;;17.30;56.20;;;;;;5039026;28;20064;-51
2022/11/09 06:14:50;;;;;;;2.00;0.60;;;17.20;56.30;;;;;;5052489;28;20052;-50
2022/11/09 06:17:19;;;;;;;4.65;0.73;;;17.30;56.40;;;;;;5048165;28;20055;-48
2022/11/09 06:19:46;;;;;;;1.48;0.50;;;17.20;56.40;;;;;;5039221;28;20063;-46
2022/11/09 06:22:13;;;;;;;2.15;0.60;;;17.20;56.50;;;;;;5039114;28;20053;-46
2022/11/09 06:24:41;;;;;;;0.60;0.57;;;17.20;56.60;;;;;;5051280;28;20052;-46
2022/11/09 06:27:08;;;;;;;0.98;0.65;;;17.20;56.60;;;;;;5045971;28;20059;-46
2022/11/09 06:29:35;;;;;;;4.80;1.13;;;17.20;56.60;;;;;;5054831;28;20048;-47
2022/11/09 06:32:02;;;;;;;1.45;0.70;;;17.20;56.60;;;;;;5041981;28;20414;-44
2022/11/09 06:34:31;;;;;;;2.17;0.50;;;17.20;56.60;;;;;;5042105;28;20071;-46
2022/11/09 06:36:59;;;;;;;1.85;0.47;;;17.20;56.70;;;;;;5045603;28;20056;-45
2022/11/09 06:39:26;;;;;;;1.15;0.50;;;17.30;56.70;;;;;;5057164;28;20056;-48
2022/11/09 06:41:54;;;;;;;1.38;0.60;;;17.20;56.60;;;;;;5047281;28;20071;-44
2022/11/09 06:44:21;;;;;;;3.40;0.65;;;17.20;56.60;;;;;;5046217;28;20059;-47
2022/11/09 06:46:49;;;;;;;0.82;0.50;;;17.20;56.60;;;;;;5041408;28;20052;-47
2022/11/09 06:49:16;;;;;;;2.38;0.40;;;17.20;56.60;;;;;;5056807;28;20053;-49
2022/11/09 06:51:44;;;;;;;0.65;0.40;;;17.20;56.60;;;;;;5056544;28;20063;-51
2022/11/09 06:54:12;;;;;;;2.88;0.60;;;17.20;56.70;;;;;;5054082;28;20048;-43
2022/11/09 06:56:39;;;;;;;1.73;0.60;;;17.20;56.80;;;;;;5043018;28;20060;-44
2022/11/09 06:59:06;;;;;;;1.48;0.60;;;17.10;56.80;;;;;;5031301;28;20052;-44
2022/11/09 07:01:34;;;;;;;0.77;0.60;;;17.10;56.80;;;;;;5033282;28;20061;-43
2022/11/09 07:04:01;;;;;;;3.50;0.70;;;17.10;56.90;;;;;;5055890;28;20052;-42
2022/11/09 07:06:28;;;;;;;4.60;1.02;;;17.10;56.90;;;;;;5062521;28;20500;-47
2022/11/09 07:08:57;;;;;;;12.45;5.97;;;17.10;56.90;;;;;;5045848;28;20057;-44
2022/11/09 07:11:25;;;;;;;12.70;6.15;;;17.10;56.90;;;;;;5035664;28;20057;-46
2022/11/09 07:13:53;;;;;;;7.18;4.20;;;17.10;56.90;;;;;;5052978;28;20060;-47
2022/11/09 07:16:20;;;;;;;3.85;1.95;;;17.10;56.80;;;;;;5060249;28;20062;-44
2022/11/09 07:18:48;;;;;;;1.85;1.30;;;17.10;56.80;;;;;;5063320;28;20064;-47
2022/11/09 07:21:15;;;;;;;3.42;1.40;;;17.00;56.80;;;;;;5050880;28;20053;-49
2022/11/09 07:23:43;;;;;;;6.15;1.60;;;17.00;56.80;;;;;;5046896;28;20055;-53
2022/11/09 07:26:11;;;;;;;1.55;0.82;;;17.00;56.80;;;;;;5043338;28;20068;-44
2022/11/09 07:28:39;;;;;;;4.68;0.90;;;17.10;56.80;;;;;;5043785;28;20057;-43
2022/11/09 07:31:07;;;;;;;1.80;0.82;;;17.00;56.80;;;;;;5044926;28;20052;-49
2022/11/09 07:33:34;;;;;;;1.60;0.68;;;17.00;56.80;;;;;;5042268;28;20061;-47
2022/11/09 07:36:04;;;;;;;2.35;0.75;;;17.00;56.80;;;;;;5037081;28;20045;-49
2022/11/09 07:38:31;;;;;;;4.18;0.98;;;17.00;56.80;;;;;;5036772;28;20063;-49
2022/11/09 07:41:00;;;;;;;2.00;0.68;;;17.00;56.80;;;;;;5051982;28;20049;-48
2022/11/09 07:43:29;;;;;;;1.75;0.60;;;17.00;56.80;;;;;;5050853;28;21094;-49
2022/11/09 07:45:56;;;;;;;3.85;1.00;;;17.00;56.80;;;;;;5044430;28;20048;-47
2022/11/09 07:48:24;;;;;;;1.80;0.60;;;17.00;56.80;;;;;;5047028;28;20061;-43
2022/11/09 07:50:51;;;;;;;2.08;0.80;;;17.00;56.90;;;;;;5042941;28;20500;-44
2022/11/09 07:53:20;;;;;;;1.48;0.70;;;17.00;56.90;;;;;;5037161;28;20045;-48
2022/11/09 07:55:47;;;;;;;6.22;0.82;;;17.00;57.00;;;;;;5051197;28;20052;-44
2022/11/09 07:58:15;;;;;;;2.90;0.75;;;17.00;57.00;;;;;;5067075;28;20056;-47
2022/11/09 08:00:44;;;;;;;2.35;0.80;;;17.00;57.00;;;;;;5057310;28;20053;-44
2022/11/09 08:03:11;;;;;;;3.22;0.90;;;17.10;57.00;;;;;;5056046;28;20060;-46
2022/11/09 08:05:39;;;;;;;4.35;1.20;;;17.00;56.90;;;;;;5046610;28;20262;-46
2022/11/09 08:08:08;;;;;;;1.08;0.85;;;17.10;56.90;;;;;;5061576;28;20063;-47
2022/11/09 08:10:36;;;;;;;3.72;0.85;;;17.10;56.80;;;;;;5058352;28;20060;-46
2022/11/09 08:13:05;;;;;;;3.13;1.05;;;17.10;56.80;;;;;;5053567;28;20394;-46
2022/11/09 08:15:35;;;;;;;6.15;0.90;;;17.10;56.80;;;;;;5032836;28;20496;-46
2022/11/09 08:18:06;;;;;;;4.20;1.20;;;17.10;56.80;;;;;;5040903;28;20412;-45
2022/11/09 08:20:34;;;;;;;9.32;0.90;;;17.10;56.70;;;;;;5041242;28;21285;-45
2022/11/09 08:23:02;;;;;;;6.82;0.90;;;17.10;56.70;;;;;;5044575;28;20056;-48
2022/11/09 08:25:31;;;;;;;4.63;1.50;;;17.10;56.70;;;;;;5042406;28;20052;-45
2022/11/09 08:27:59;;;;;;;3.15;1.20;;;17.10;56.80;;;;;;5048065;28;20484;-47
2022/11/09 08:30:27;;;;;;;6.93;1.50;;;17.10;56.70;;;;;;5047911;28;20056;-46
2022/11/09 08:32:55;;;;;;;3.95;0.80;;;17.20;56.70;;;;;;5048832;28;20385;-46
2022/11/09 08:35:25;;;;;;;6.28;1.80;;;17.20;56.60;;;;;;5044302;28;20488;-45
2022/11/09 08:37:54;;;;;;;5.85;1.10;;;17.20;56.60;;;;;;5053228;28;20053;-43
2022/11/09 08:40:25;;;;;;;4.03;1.10;;;17.20;56.50;;;;;;5060301;28;20548;-43
2022/11/09 08:42:54;;;;;;;4.20;1.50;;;17.20;56.90;;;;;;5056976;28;20057;-50
2022/11/09 08:45:22;;;;;;;4.88;1.33;;;17.20;56.40;;;;;;5054639;28;21776;-46
2022/11/09 08:47:56;;;;;;;3.40;1.27;;;17.20;56.30;;;;;;5043321;28;20052;-49
2022/11/09 08:50:26;;;;;;;3.75;1.50;;;17.30;56.30;;;;;;5056578;28;20064;-47
2022/11/09 08:52:53;;;;;;;7.90;1.60;;;17.30;56.40;;;;;;5041165;28;20519;-46
2022/11/09 08:55:21;;;;;;;6.25;1.90;;;17.30;56.20;;;;;;5056179;28;20052;-49
2022/11/09 08:57:48;;;;;;;7.72;3.30;;;17.30;56.20;;;;;;5054605;28;20057;-50
2022/11/09 09:00:16;;;;;;;3.10;1.55;;;17.40;56.20;;;;;;5043516;28;20049;-47
2022/11/09 09:02:44;;;;;;;4.97;1.10;;;17.40;56.20;;;;;;5038462;28;20049;-49
2022/11/09 09:05:11;;;;;;;3.92;0.93;;;17.40;56.10;;;;;;5048042;28;20057;-50
2022/11/09 09:07:39;;;;;;;4.50;1.00;;;17.40;56.10;;;;;;5042328;28;20055;-49
2022/11/09 09:10:07;;;;;;;4.68;1.30;;;17.50;56.10;;;;;;5054077;28;20052;-46
2022/11/09 09:12:35;;;;;;;2.08;0.63;;;17.50;56.00;;;;;;5059195;28;20052;-44
2022/11/09 09:15:02;;;;;;;3.40;1.08;;;17.50;55.90;;;;;;5039318;28;20507;-46
2022/11/09 09:17:29;;;;;;;3.10;0.93;;;17.50;55.90;;;;;;5053415;28;20053;-42
2022/11/09 09:19:56;;;;;;;1.92;0.70;;;17.60;55.70;;;;;;5061363;28;20063;-45
2022/11/09 09:22:24;;;;;;;4.70;2.35;;;17.60;55.60;;;;;;5031652;28;20065;-40
2022/11/09 09:24:52;;;;;;;3.45;1.08;;;17.60;55.30;;;;;;5043005;28;21538;-45
2022/11/09 09:27:19;;;;;;;2.88;0.80;;;17.60;54.60;;;;;;5042125;28;20056;-44
2022/11/09 09:29:47;;;;;;;2.78;0.70;;;17.60;54.30;;;;;;5041934;28;20052;-50
2022/11/09 09:32:14;;;;;;;2.90;1.30;;;17.60;53.90;;;;;;5047797;28;20048;-42
2022/11/09 09:34:41;;;;;;;3.92;1.13;;;17.60;53.70;;;;;;5047399;28;20049;-47
2022/11/09 09:37:08;;;;;;;3.38;0.90;;;17.60;53.40;;;;;;5043688;28;20056;-42
2022/11/09 09:39:36;;;;;;;7.07;3.53;;;17.60;53.30;;;;;;5063857;28;20052;-50
2022/11/09 09:42:08;;;;;;;9.48;3.75;;;17.60;52.90;;;;;;5043446;28;20051;-48
2022/11/09 09:44:43;;;;;;;7.38;2.28;;;17.70;52.90;;;;;;5039027;28;20408;-42
2022/11/09 09:47:13;;;;;;;5.30;1.67;;;17.70;52.50;;;;;;5041677;28;20049;-44
2022/11/09 09:49:43;;;;;;;4.40;1.58;;;17.70;52.20;;;;;;5064341;28;20062;-38
2022/11/09 09:52:21;;;;;;;5.63;1.80;;;17.70;52.10;;;;;;5039729;28;20526;-48
2022/11/09 09:54:56;;;;;;;8.07;3.05;;;17.70;51.90;;;;;;5038483;28;20056;-49
2022/11/09 09:57:27;;;;;;;7.63;3.33;;;17.70;51.80;;;;;;5057765;28;20057;-44
2022/11/09 09:59:59;;;;;;;9.88;4.45;;;17.70;51.70;;;;;;5056790;28;20056;-48
2022/11/09 10:02:28;;;;;;;15.55;6.60;;;17.70;51.90;;;;;;5053889;28;20063;-48
2022/11/09 10:04:58;;;;;;;13.25;5.68;;;17.70;52.00;;;;;;5051917;28;20056;-52
2022/11/09 10:07:30;;;;;;;12.85;5.60;;;17.80;51.90;;;;;;5045116;28;20111;-53
2022/11/09 10:10:18;;;;;;;12.50;4.93;;;17.80;51.80;;;;;;5051008;28;20068;-49
2022/11/09 10:13:07;;;;;;;8.40;4.07;;;17.80;51.60;;;;;;5051941;28;20454;-51
2022/11/09 10:15:44;;;;;;;9.15;3.80;;;17.80;51.60;;;;;;5037564;28;20060;-48
2022/11/09 10:18:36;;;;;;;4.50;2.20;;;17.90;51.40;;;;;;5063904;28;20060;-42
2022/11/09 10:21:17;;;;;;;5.30;2.28;;;17.90;50.80;;;;;;5038363;28;20072;-47
2022/11/09 10:23:59;;;;;;;7.13;2.70;;;17.90;50.60;;;;;;5041227;28;20060;-40
2022/11/09 10:26:39;;;;;;;5.80;2.10;;;17.90;50.60;;;;;;5045227;28;20056;-47
2022/11/09 10:29:21;;;;;;;8.93;2.00;;;17.90;50.30;;;;;;5060330;28;20053;-42
2022/11/09 10:31:51;;;;;;;4.78;1.40;;;17.90;50.10;;;;;;5037359;28;20056;-51
2022/11/09 10:34:21;;;;;;;4.68;1.40;;;18.00;50.20;;;;;;5040178;28;20055;-48
2022/11/09 10:36:58;;;;;;;5.97;1.25;;;18.00;50.20;;;;;;5045060;28;20580;-46
2022/11/09 10:39:28;;;;;;;9.55;2.72;;;18.00;50.00;;;;;;5040528;28;20052;-48
2022/11/09 10:41:56;;;;;;;6.75;1.48;;;18.00;50.00;;;;;;5036529;28;20057;-43
2022/11/09 10:44:24;;;;;;;6.45;1.50;;;18.00;49.80;;;;;;5040957;28;20059;-43
2022/11/09 10:47:04;;;;;;;8.15;1.67;;;18.00;49.30;;;;;;5041201;28;20420;-45
2022/11/09 10:49:32;;;;;;;7.88;1.88;;;18.00;49.10;;;;;;5044954;28;20071;-44
2022/11/09 10:52:00;;;;;;;4.43;0.90;;;18.00;49.30;;;;;;5041544;28;20060;-44
2022/11/09 10:54:30;;;;;;;2.08;0.82;;;18.10;49.40;;;;;;5042828;28;20396;-47
2022/11/09 10:57:09;;;;;;;4.28;1.45;;;18.00;49.40;;;;;;5049492;28;20416;-49
2022/11/09 10:59:48;;;;;;;23.15;11.15;;;18.10;49.60;;;;;;5039392;28;20060;-46
2022/11/09 11:02:41;;;;;;;14.00;5.40;;;18.10;49.40;;;;;;5041996;28;20052;-41
2022/11/09 11:05:31;;;;;;;7.28;2.40;;;18.10;49.40;;;;;;5039156;28;20056;-46
2022/11/09 11:08:11;;;;;;;6.95;1.80;;;18.10;49.30;;;;;;5048438;28;20045;-49
2022/11/09 11:10:38;;;;;;;8.82;1.60;;;18.10;49.50;;;;;;5045227;28;20049;-44
2022/11/09 11:13:24;;;;;;;9.98;1.95;;;18.10;49.40;;;;;;5039386;28;20049;-51
2022/11/09 11:15:52;;;;;;;7.88;1.40;;;18.10;49.40;;;;;;5046246;28;20048;-46
2022/11/09 11:18:23;;;;;;;6.78;1.40;;;18.10;49.20;;;;;;5038336;28;20064;-49
2022/11/09 11:21:13;;;;;;;4.00;1.20;;;18.10;49.00;;;;;;5042072;28;20052;-44
2022/11/09 11:23:40;;;;;;;5.28;1.17;;;18.10;49.00;;;;;;5037416;28;20076;-45
2022/11/09 11:26:25;;;;;;;7.80;1.10;;;18.10;49.20;;;;;;5045161;28;20045;-40
2022/11/09 11:28:59;;;;;;;7.50;0.82;;;18.10;49.10;;;;;;5043608;28;20389;-48
2022/11/09 11:31:28;;;;;;;6.43;1.08;;;18.10;49.10;;;;;;5053285;28;20393;-45
2022/11/09 11:33:56;;;;;;;7.13;0.90;;;18.10;49.00;;;;;;5045350;28;20385;-43
2022/11/09 11:36:33;;;;;;;3.30;1.25;;;18.10;49.00;;;;;;5041462;28;20055;-44
2022/11/09 11:39:12;;;;;;;3.50;0.93;;;18.00;48.70;;;;;;5044049;28;20448;-52
2022/11/09 11:41:58;;;;;;;3.35;0.77;;;18.10;49.20;;;;;;5044999;28;20061;-46
2022/11/09 11:44:43;;;;;;;5.55;1.33;;;18.10;48.80;;;;;;5064417;28;20056;-52
2022/11/09 11:47:17;;;;;;;;;;;18.00;48.70;;;;;;5052030;28;20049;-42
2022/11/09 11:50:15;;;;;;;8.20;1.50;;;18.00;49.10;;;;;;5056808;28;19920;-47
2022/11/09 11:52:53;;;;;;;5.57;1.15;;;18.10;48.70;;;;;;5040646;28;20053;-48
2022/11/09 11:55:31;;;;;;;8.07;1.63;;;18.10;48.70;;;;;;5050269;28;20048;-47
2022/11/09 11:58:11;;;;;;;8.48;0.98;;;18.00;48.40;;;;;;5044177;28;20670;-42
2022/11/09 12:00:47;;;;;;;5.43;1.10;;;18.10;48.50;;;;;;5047549;28;20060;-44
2022/11/09 12:03:46;;;;;;;5.78;1.10;;;18.10;48.20;;;;;;5042839;28;20078;-50
2022/11/09 12:06:48;;;;;;;11.20;1.30;;;18.10;48.30;;;;;;5032783;28;20052;-46
2022/11/09 12:09:30;;;;;;;6.95;1.42;;;18.10;48.30;;;;;;5049026;28;20053;-44
2022/11/09 12:12:12;;;;;;;4.95;1.60;;;18.10;48.00;;;;;;5047360;28;20056;-46
2022/11/09 12:14:55;;;;;;;6.15;1.27;;;18.10;48.20;;;;;;5060455;28;20056;-45
2022/11/09 12:17:32;;;;;;;3.63;1.02;;;18.10;48.40;;;;;;5056110;28;20091;-40
2022/11/09 12:20:19;;;;;;;6.90;0.90;;;18.10;48.40;;;;;;5040229;28;20060;-41
2022/11/09 12:22:58;;;;;;;8.07;1.05;;;18.20;48.10;;;;;;5041947;28;20511;-41
2022/11/09 12:25:33;;;;;;;6.57;1.33;;;18.10;48.10;;;;;;5052102;28;20484;-47
2022/11/09 12:28:15;;;;;;;7.22;1.10;;;18.10;48.20;;;;;;5040490;28;20069;-48
2022/11/09 12:30:54;;;;;;;4.18;0.88;;;18.10;48.20;;;;;;5052347;28;20052;-47
2022/11/09 12:33:28;;;;;;;9.82;1.67;;;18.10;48.40;;;;;;5045573;28;20063;-43
2022/11/09 12:36:02;;;;;;;7.32;1.27;;;18.20;48.50;;;;;;5044019;28;20404;-41
2022/11/09 12:38:33;;;;;;;6.10;1.10;;;18.20;48.40;;;;;;5047412;28;20052;-46
2022/11/09 12:41:05;;;;;;;4.90;1.40;;;18.10;48.20;;;;;;5053083;28;20477;-42
2022/11/09 12:43:37;;;;;;;5.07;0.90;;;18.10;48.20;;;;;;5062195;28;20067;-50
2022/11/09 12:46:06;;;;;;;7.20;1.55;;;18.10;48.20;;;;;;5047924;28;20511;-45
2022/11/09 12:48:35;;;;;;;4.63;1.15;;;18.10;48.30;;;;;;5065049;28;20067;-40
2022/11/09 12:51:05;;;;;;;5.40;0.95;;;18.10;48.40;;;;;;5045559;28;20401;-47
2022/11/09 12:53:35;;;;;;;7.65;1.23;;;18.10;48.50;;;;;;5057355;28;20064;-42
2022/11/09 12:56:09;;;;;;;8.52;1.70;;;18.10;48.50;;;;;;5048376;28;20400;-40
2022/11/09 12:58:38;;;;;;;7.40;1.50;;;18.10;48.50;;;;;;5048041;28;20053;-40
2022/11/09 13:01:07;;;;;;;4.40;1.30;;;18.10;48.40;;;;;;5049138;28;20049;-48
2022/11/09 13:03:37;;;;;;;6.28;1.42;;;18.10;48.40;;;;;;5053909;28;20067;-46
2022/11/09 13:06:17;;;;;;;2.92;0.93;;;18.10;48.50;;;;;;5048067;28;20045;-41
2022/11/09 13:08:57;;;;;;;4.93;1.10;;;18.10;48.40;;;;;;5034600;28;20049;-41
2022/11/09 13:11:38;;;;;;;5.13;1.10;;;18.10;48.50;;;;;;5057992;28;20063;-40
2022/11/09 13:14:34;;;;;;;7.03;0.95;;;18.10;48.40;;;;;;5050351;28;20049;-43
2022/11/09 13:17:23;;;;;;;6.18;1.30;;;18.10;48.60;;;;;;5044108;28;20045;-41
2022/11/09 13:19:54;;;;;;;7.60;1.00;;;18.10;48.50;;;;;;5037510;28;20072;-40
2022/11/09 13:23:00;;;;;;;5.90;1.08;;;18.10;48.40;;;;;;5041855;28;20079;-44
2022/11/09 13:25:47;;;;;;;3.85;1.02;;;18.10;48.20;;;;;;5041853;28;20053;-43
2022/11/09 13:28:45;;;;;;;6.32;0.98;;;18.10;48.50;;;;;;5050824;28;20059;-49
2022/11/09 13:31:12;;;;;;;4.00;1.10;;;18.10;48.30;;;;;;5046224;28;20049;-41
2022/11/09 13:33:39;;;;;;;4.70;1.20;;;18.10;48.40;;;;;;5041795;28;20052;-43